Detall de PIREP

Printer-friendly versionPDF version

[2015/09/02 12:31:00]
Flight IATA:CT3311
Pilot Number:042
Company ICAO:CAT
Aircraft Type:B752/E
PAX:0
Aircraft Registration:CARGO
Departing Airport: LLBG
Destination Airport: LEZG
Alternate Airport:LEBL
Online: VATSIM
Route:PURLA H1B SUVAS UL53 KAROL UA14 KAVOS UM1 SIT UM978 DEMAG UP158 ELKAN UP167 GINOX UM601 BCN UN725 LOBAR
Flight Level:F360
No Slew and time accel
No pause
Crash detect
Detect pilot in Cockpit between each 30 and 45 minutes
12:31 Zero fuel Weight: 200009 Lbs, Fuel Weight: 75196 Lbs
12:31 VATSIM:LLBG 020520Z VRB03KT 9999 FEW020 27/22 Q1011 NOSIG
12:31 VATSIM:LEZG 020500Z 28007KT 9999 FEW015 SCT020 BKN058 15/14 Q1018
12:33 Parking Brakes off
12:35 Take-off
12:35 Take off Weight: 274057 Lbs
12:35 Wind: 000º @ 003 Knots Heading: 303º
12:35 POS N32º 00´ 38´´ E034º 52´ 31´´
12:35 Gear Up: 185 Knots
12:35 Flaps:2 at 185 Knots
12:36 Flaps:1 at 212 Knots
12:36 Flaps:0 at 238 Knots
12:50 Wind:270º@029 Knots Heading: 296º Ground Speed: 438 Knots Altitude 21965 ft
13:03 TOC
13:03 Fuel Weight: 65909 Lb
13:05 Wind:244º@036 Knots Heading: 288º Ground Speed: 469 Knots Altitude 35925 ft
13:20 Wind:238º@042 Knots Heading: 289º Ground Speed: 449 Knots Altitude 35948 ft
13:35 Wind:226º@049 Knots Heading: 286º Ground Speed: 450 Knots Altitude 35931 ft
13:50 Wind:218º@051 Knots Heading: 269º Ground Speed: 441 Knots Altitude 35931 ft
14:05 Wind:208º@044 Knots Heading: 273º Ground Speed: 453 Knots Altitude 36040 ft
14:20 Wind:203º@030 Knots Heading: 282º Ground Speed: 465 Knots Altitude 35961 ft
14:35 Wind:210º@019 Knots Heading: 299º Ground Speed: 470 Knots Altitude 35990 ft
14:50 Wind:329º@022 Knots Heading: 301º Ground Speed: 449 Knots Altitude 35994 ft
15:05 Wind:317º@026 Knots Heading: 299º Ground Speed: 442 Knots Altitude 36036 ft
15:20 Wind:287º@028 Knots Heading: 298º Ground Speed: 438 Knots Altitude 36000 ft
15:35 Wind:261º@032 Knots Heading: 295º Ground Speed: 435 Knots Altitude 35967 ft
15:50 Wind:253º@047 Knots Heading: 268º Ground Speed: 419 Knots Altitude 36043 ft
16:05 Wind:254º@055 Knots Heading: 276º Ground Speed: 414 Knots Altitude 36030 ft
16:20 Wind:260º@060 Knots Heading: 275º Ground Speed: 405 Knots Altitude 36099 ft
16:33 TOD
16:33 Fuel Weight: 36269 Lb
16:35 Wind:264º@059 Knots Heading: 284º Ground Speed: 342 Knots Altitude 34222 ft
16:48 Flaps:1 at 234 Knots
16:50 Wind:224º@007 Knots Heading: 263º Ground Speed: 248 Knots Altitude 8070 ft
16:52 Flaps:2 at 212 Knots
16:53 Flaps:3 at 182 Knots
16:55 Gear Down: 189 Knots
16:56 Flaps:4 at 191 Knots
16:56 Flaps:5 at 190 Knots
16:56 Flaps:6 at 185 Knots
16:56 Flaps:5 at 167 Knots
16:56 Flaps:6 at 166 Knots
16:57Flaps:5 at 164 Knots
16:57 Flaps:6 at 162 Knots
16:59 TouchDown:Rate -286 ft/min Speed: 147 Knots
17:00 VATSIM:LEZG 020930Z 29007KT 270V330 9999 BKN060 17/13 Q1018
17:00 Land
17:00 Wind:287º@007 Knots
17:00 Heading: 300º
17:00 Flight Duration: 04:25
17:00 Landing Weight: 233460 Lbs
17:00 POS N41º 39´ 44´´ W001º 01´ 28´´
17:01 Parking brakes on
17:01 Block to Block Duration: 04:28
17:01 Final Fuel: 33236 Lbls
17:01 Spent Fuel: 41959 Lbls
17:01 Flight Length: 1846 NM
17:01 TOD Land Length: 113 NM

Exportar CSV

Powered by Drupal - Modified by Danger4k